Time;durP1;ratioP1;P1;durP2;ratioP2;P2;SDS_P1;SDS_P2;PMS_P1;PMS_P2;Temp;Humidity;BMP_temperature;BMP_pressure;BME280_temperature;BME280_humidity;BME280_pressure;Samples;Min_cycle;Max_cycle;Signal;HPM_P1;HPM_P2
2021/06/02 00:01:59;;;;;;;7.47;1.85;;;14.70;99.90;;;14.23;72.15;100829.00;5009877;28;20392;-49
2021/06/02 00:04:29;;;;;;;3.70;1.88;;;14.70;99.90;;;14.19;72.34;100826.88;5027360;28;20116;-46
2021/06/02 00:07:09;;;;;;;3.35;1.77;;;14.70;99.90;;;14.14;72.74;100830.00;5032115;28;20120;-50
2021/06/02 00:09:37;;;;;;;4.05;1.90;;;14.70;99.90;;;14.08;72.56;100835.03;5029224;28;20032;-46
2021/06/02 00:12:08;;;;;;;3.38;1.58;;;14.60;99.90;;;14.03;72.99;100830.28;5047597;28;20411;-51
2021/06/02 00:14:35;;;;;;;6.60;2.33;;;14.60;99.90;;;13.96;73.04;100829.25;5047321;28;20045;-49
2021/06/02 00:17:02;;;;;;;2.65;1.90;;;14.50;99.90;;;13.89;73.10;100823.00;5046259;28;20025;-49
2021/06/02 00:19:28;;;;;;;4.63;1.73;;;14.40;99.90;;;13.83;73.44;100823.63;5049120;28;20102;-51
2021/06/02 00:21:58;;;;;;;4.03;1.65;;;14.40;99.90;;;13.79;73.94;100822.28;5051052;28;20060;-51
2021/06/02 00:24:25;;;;;;;12.35;2.20;;;14.30;99.90;;;13.88;73.47;100818.75;5017237;28;20040;-47
2021/06/02 00:26:53;;;;;;;4.32;2.00;;;14.30;99.90;;;13.89;73.35;100815.16;5033641;28;20033;-50
2021/06/02 00:29:24;;;;;;;4.53;1.80;;;14.40;99.90;;;13.87;73.68;100817.09;5051364;28;20036;-51
2021/06/02 00:31:51;;;;;;;9.13;1.80;;;14.40;99.90;;;13.87;73.46;100820.53;5051413;28;20156;-49
2021/06/02 00:34:20;;;;;;;3.80;2.17;;;14.40;99.90;;;13.83;73.86;100831.47;5050750;28;20131;-51
2021/06/02 00:36:47;;;;;;;3.38;1.65;;;14.30;99.90;;;13.74;74.26;100819.31;5050882;28;20033;-48
2021/06/02 00:39:14;;;;;;;4.97;2.08;;;14.30;99.90;;;13.66;74.68;100825.38;5028452;28;20115;-51
2021/06/02 00:41:42;;;;;;;3.00;2.15;;;14.20;99.90;;;13.70;74.79;100820.63;5031138;28;20612;-50
2021/06/02 00:44:11;;;;;;;2.67;1.63;;;14.20;99.90;;;13.79;73.70;100815.25;5031012;28;20524;-49
2021/06/02 00:46:39;;;;;;;2.50;1.50;;;14.30;99.90;;;13.82;73.46;100812.34;5030686;28;20029;-51
2021/06/02 00:49:09;;;;;;;5.25;2.60;;;14.30;99.90;;;13.76;73.80;100812.97;5031340;28;20039;-46
2021/06/02 00:51:36;;;;;;;3.03;2.25;;;14.30;99.90;;;13.68;74.34;100812.13;5030858;28;20025;-46
2021/06/02 00:54:04;;;;;;;3.13;1.73;;;14.20;99.90;;;13.59;74.83;100816.50;5030685;28;20034;-49
2021/06/02 00:56:43;;;;;;;12.15;2.50;;;14.20;99.90;;;13.42;76.20;100812.13;5030560;28;20022;-50
2021/06/02 00:59:10;;;;;;;4.47;2.08;;;14.00;99.90;;;13.37;75.85;100812.59;5030934;28;20037;-51
2021/06/02 01:01:36;;;;;;;6.32;2.90;;;13.90;99.90;;;13.31;76.10;100818.44;5030829;28;20116;-49
2021/06/02 01:04:04;;;;;;;4.05;2.22;;;13.90;99.90;;;13.25;76.20;100821.66;5030417;28;20338;-46
2021/06/02 01:06:35;;;;;;;3.22;2.63;;;13.80;99.90;;;13.17;76.39;100819.00;5030307;28;20225;-46
2021/06/02 01:09:05;;;;;;;3.60;2.83;;;13.70;99.90;;;13.12;76.73;100816.81;5030420;28;20037;-51
2021/06/02 01:11:32;;;;;;;3.10;2.70;;;13.70;99.90;;;13.11;76.79;100823.03;5030425;28;20022;-52
2021/06/02 01:14:00;;;;;;;4.00;2.80;;;13.60;99.90;;;13.09;76.74;100821.53;5030552;28;20041;-51
2021/06/02 01:16:34;;;;;;;2.70;2.50;;;13.60;99.90;;;13.01;77.42;100818.84;5040221;28;20465;-52
2021/06/02 01:19:01;;;;;;;3.50;2.63;;;13.60;99.90;;;12.99;77.39;100824.22;5050186;28;20403;-54
2021/06/02 01:21:31;;;;;;;4.55;2.78;;;13.50;99.90;;;12.99;77.39;100821.59;5049460;28;20104;-49
2021/06/02 01:24:00;;;;;;;4.20;2.80;;;13.50;99.90;;;13.00;77.41;100817.19;5031912;28;20088;-45
2021/06/02 01:26:30;;;;;;;4.88;2.40;;;13.50;99.90;;;13.03;77.29;100825.56;5031441;28;20124;-51
2021/06/02 01:28:57;;;;;;;4.72;2.42;;;13.50;99.90;;;13.06;76.78;100822.66;5032223;28;20368;-49
2021/06/02 01:31:55;;;;;;;5.15;2.78;;;13.60;99.90;;;13.14;77.62;100824.50;5048717;28;20500;-46
2021/06/02 01:34:56;;;;;;;2.20;2.00;;;13.60;99.90;;;13.12;77.43;100813.38;5050039;28;20103;-48
2021/06/02 01:37:44;;;;;;;7.88;2.22;;;13.60;99.90;;;13.18;77.23;100805.78;5049147;28;20041;-48
2021/06/02 01:40:44;;;;;;;5.10;2.28;;;13.60;99.90;;;13.28;76.67;100808.25;5009342;28;20041;-49
2021/06/02 01:43:54;;;;;;;5.25;1.90;;;13.70;99.90;;;13.26;76.65;100808.41;5029889;28;20501;-50
2021/06/02 01:46:28;;;;;;;6.65;2.58;;;13.70;99.90;;;13.22;75.96;100809.72;5029890;28;20049;-53
2021/06/02 01:49:06;;;;;;;2.50;1.60;;;13.70;99.90;;;13.25;76.18;100813.81;5029802;28;20046;-49
2021/06/02 01:51:57;;;;;;;4.40;1.88;;;13.70;99.90;;;13.25;76.80;100816.41;5046861;28;20044;-45
2021/06/02 01:54:48;;;;;;;1.80;1.60;;;13.70;99.90;;;13.21;76.14;100815.94;5049488;28;20080;-50
2021/06/02 01:57:35;;;;;;;4.55;2.40;;;13.80;99.90;;;13.06;78.40;100820.03;5049874;28;20053;-53
2021/06/02 02:00:14;;;;;;;3.88;2.10;;;13.60;99.90;;;12.88;78.54;100817.44;5031389;28;20056;-50
2021/06/02 02:03:09;;;;;;;3.83;1.92;;;13.50;99.90;;;12.79;80.38;100828.78;5032804;28;20049;-52
2021/06/02 02:06:27;;;;;;;5.07;2.10;;;13.40;99.90;;;12.76;79.55;100823.06;5049584;28;20045;-49
2021/06/02 02:09:25;;;;;;;5.32;1.85;;;13.30;99.90;;;12.75;79.86;100821.41;5049219;28;20044;-51
2021/06/02 02:11:51;;;;;;;5.40;2.17;;;13.30;99.90;;;12.79;78.37;100823.56;5033410;28;20037;-50
2021/06/02 02:14:51;;;;;;;3.78;2.05;;;13.30;99.90;;;12.93;79.14;100819.59;5031286;28;20037;-46
2021/06/02 02:17:30;;;;;;;2.33;1.77;;;13.30;99.90;;;12.98;78.33;100808.69;5049081;28;20481;-49
2021/06/02 02:20:41;;;;;;;6.35;2.20;;;13.40;99.90;;;12.99;77.88;100812.94;5048905;28;20029;-47
2021/06/02 02:23:31;;;;;;;3.80;1.90;;;13.50;99.90;;;12.93;77.40;100823.03;5015395;28;20037;-47
2021/06/02 02:26:31;;;;;;;6.10;2.20;;;13.50;99.90;;;12.95;77.42;100821.09;5048713;28;20144;-48
2021/06/02 02:29:23;;;;;;;4.15;2.22;;;13.40;99.90;;;12.98;76.63;100825.19;5012035;28;20041;-52
2021/06/02 02:32:10;;;;;;;3.42;1.50;;;13.50;99.90;;;13.04;76.00;100824.59;5028967;28;20048;-51
2021/06/02 02:34:56;;;;;;;5.68;2.08;;;13.50;99.90;;;13.12;75.73;100832.50;5029908;28;20059;-47
2021/06/02 02:37:55;;;;;;;3.77;2.00;;;13.60;99.90;;;13.16;75.46;100822.59;5048707;28;20119;-48
2021/06/02 02:41:24;;;;;;;5.00;1.55;;;13.60;99.90;;;13.16;75.52;100827.84;5048806;28;20039;-48
2021/06/02 02:44:07;;;;;;;6.70;2.00;;;13.60;99.90;;;13.15;75.17;100834.00;5047869;28;21604;-51
2021/06/02 02:47:26;;;;;;;2.70;1.77;;;13.60;99.90;;;13.12;76.16;100829.06;5048421;28;20051;-49
2021/06/02 02:50:24;;;;;;;2.30;1.90;;;13.60;99.90;;;13.01;78.26;100829.31;5045918;28;20056;-49
2021/06/02 02:53:11;;;;;;;5.30;2.35;;;13.60;99.90;;;12.83;79.53;100840.59;5029787;28;20143;-51
2021/06/02 02:55:38;;;;;;;4.50;2.55;;;13.40;99.90;;;12.67;78.88;100843.06;5047975;28;20518;-50
2021/06/02 02:58:16;;;;;;;4.53;2.35;;;13.30;99.90;;;12.60;80.86;100848.06;5026362;28;20025;-49
2021/06/02 03:00:53;;;;;;;3.47;2.33;;;13.20;99.90;;;12.57;81.16;100834.47;5028366;28;20052;-47
2021/06/02 03:04:07;;;;;;;3.78;2.10;;;13.10;99.90;;;12.61;81.32;100848.91;5028375;28;20072;-47
2021/06/02 03:06:40;;;;;;;4.78;2.40;;;13.10;99.90;;;12.67;79.95;100848.31;5003277;28;20034;-49
2021/06/02 03:09:21;;;;;;;4.35;2.28;;;13.10;99.90;;;12.69;80.19;100843.75;4985179;28;20453;-50
2021/06/02 03:12:30;;;;;;;4.25;2.13;;;13.20;99.90;;;12.74;80.00;100844.13;4980007;28;20069;-51
2021/06/02 03:15:09;;;;;;;5.70;1.98;;;13.20;99.90;;;12.76;79.48;100844.78;4985212;28;20520;-51
2021/06/02 03:17:48;;;;;;;5.47;2.45;;;13.20;99.90;;;12.80;79.21;100843.50;4973227;28;20038;-46
2021/06/02 03:20:44;;;;;;;3.88;2.30;;;13.30;99.90;;;12.85;78.32;100848.28;5003596;28;20045;-46
2021/06/02 03:23:27;;;;;;;5.53;1.90;;;13.30;99.90;;;12.87;77.81;100849.78;4985757;28;20571;-48
2021/06/02 03:26:26;;;;;;;3.38;1.63;;;13.30;99.90;;;12.96;76.49;100850.69;4986667;28;20183;-49
2021/06/02 03:29:13;;;;;;;2.03;1.63;;;13.40;99.90;;;13.00;76.01;100845.97;5041811;23;20062;-51
2021/06/02 03:32:07;;;;;;;2.47;2.28;;;13.50;99.90;;;13.00;76.71;100853.81;5008167;28;20058;-50
2021/06/02 03:35:03;;;;;;;4.55;2.50;;;13.50;99.90;;;12.86;77.43;100858.59;5006867;28;20037;-50
2021/06/02 03:38:33;;;;;;;6.40;2.85;;;13.40;99.90;;;12.88;77.78;100859.28;5008172;28;20141;-51
2021/06/02 03:41:17;;;;;;;3.38;2.85;;;13.40;99.90;;;12.90;77.39;100856.50;4984593;28;20052;-51
2021/06/02 03:43:53;;;;;;;3.78;2.80;;;13.40;99.90;;;12.96;77.27;100858.53;5006556;28;20065;-45
2021/06/02 03:46:39;;;;;;;3.78;3.03;;;13.50;99.90;;;13.02;77.34;100852.69;5006983;28;20061;-51
2021/06/02 03:49:16;;;;;;;6.18;3.03;;;13.60;99.90;;;13.02;77.07;100851.88;5007860;28;20042;-46
2021/06/02 03:52:15;;;;;;;3.10;2.80;;;13.60;99.90;;;13.11;76.81;100853.59;5008067;28;20417;-50
2021/06/02 03:55:08;;;;;;;2.85;1.83;;;13.70;99.90;;;13.30;75.49;100858.66;5007539;28;20041;-50
2021/06/02 03:57:58;;;;;;;2.85;1.75;;;13.80;99.90;;;13.46;74.52;100852.72;5007953;28;20062;-50
2021/06/02 04:00:41;;;;;;;2.10;1.30;;;13.90;99.90;;;13.58;73.75;100851.50;5007874;28;20420;-48
2021/06/02 04:03:36;;;;;;;4.65;2.25;;;14.10;99.90;;;13.77;73.02;100842.59;5008065;28;20092;-47
2021/06/02 04:06:20;;;;;;;2.08;1.10;;;14.30;99.90;;;14.35;70.96;100836.59;5006267;28;20030;-48
2021/06/02 04:09:08;;;;;;;4.28;1.98;;;14.80;99.90;;;14.84;69.51;100846.22;5006412;28;20505;-48
2021/06/02 04:11:59;;;;;;;4.13;1.92;;;15.50;99.90;;;15.30;67.71;100836.03;5006226;28;20039;-52
2021/06/02 04:14:35;;;;;;;3.10;1.42;;;15.90;99.90;;;15.75;66.23;100839.88;5006079;28;20485;-47
2021/06/02 04:17:01;;;;;;;;;;;16.60;99.90;;;16.19;64.64;100843.66;5006554;28;20071;-47
2021/06/02 04:19:29;;;;;;;;;;;17.10;99.90;;;16.15;64.69;100842.34;5007989;28;19917;-46
2021/06/02 04:22:07;;;;;;;1.30;1.13;;;17.40;99.90;;;16.33;64.51;100842.13;5008041;28;20186;-49
2021/06/02 04:24:36;;;;;;;3.25;1.67;;;17.50;99.90;;;16.92;62.60;100840.59;5007457;28;20169;-48
2021/06/02 04:27:04;;;;;;;2.55;1.70;;;18.20;99.40;;;17.17;62.43;100843.00;5007288;28;20450;-48
2021/06/02 04:29:32;;;;;;;3.55;1.92;;;18.50;98.20;;;17.29;61.54;100849.50;5007362;28;20530;-50
2021/06/02 04:32:05;;;;;;;3.13;2.05;;;18.80;96.90;;;17.69;60.25;100850.09;5005993;28;20409;-51
2021/06/02 04:34:32;;;;;;;1.88;1.15;;;19.20;95.80;;;17.69;60.19;100855.38;5007357;28;20091;-50
2021/06/02 04:37:04;;;;;;;1.58;1.30;;;19.40;94.00;;;17.71;60.00;100856.00;5006910;28;20041;-47
2021/06/02 04:39:32;;;;;;;4.18;1.52;;;19.50;93.60;;;18.11;58.98;100862.63;5007620;28;20334;-47
2021/06/02 04:42:04;;;;;;;3.08;1.48;;;19.80;92.40;;;17.73;59.38;100864.56;5007576;28;20036;-47
2021/06/02 04:44:32;;;;;;;3.67;1.67;;;19.60;91.70;;;16.90;62.12;100865.44;5007394;28;20038;-48
2021/06/02 04:47:00;;;;;;;3.08;1.30;;;18.70;93.30;;;16.92;62.29;100851.13;5007237;28;20485;-50
2021/06/02 04:50:19;;;;;;;3.72;1.50;;;18.40;95.10;;;18.06;58.72;100857.88;5007550;28;20074;-46
2021/06/02 04:53:31;;;;;;;3.45;1.50;;;19.60;92.20;;;18.64;57.17;100868.53;5007634;28;20046;-50
2021/06/02 04:56:54;;;;;;;4.43;1.17;;;20.50;89.40;;;18.86;55.29;100867.53;5007258;28;20562;-48
2021/06/02 04:59:47;;;;;;;4.07;1.70;;;20.80;86.50;;;19.23;54.64;100863.78;5007562;28;20042;-53
2021/06/02 05:02:49;;;;;;;3.78;1.35;;;21.30;83.50;;;19.30;53.65;100869.13;5006088;28;20042;-45
2021/06/02 05:05:52;;;;;;;2.95;1.27;;;21.50;80.40;;;19.54;52.94;100866.06;5007808;28;20046;-50
2021/06/02 05:08:40;;;;;;;9.13;1.23;;;21.80;76.60;;;20.03;51.66;100865.94;5009466;28;20046;-48
2021/06/02 05:11:52;;;;;;;1.67;1.00;;;22.30;74.40;;;20.77;49.24;100863.34;5010756;28;20041;-49
2021/06/02 05:15:04;;;;;;;4.22;1.00;;;23.00;71.10;;;20.18;50.33;100871.91;5010763;28;20049;-50
2021/06/02 05:18:08;;;;;;;2.97;1.20;;;22.90;71.00;;;20.01;50.75;100869.78;5009226;28;20046;-52
2021/06/02 05:24:02;;;;;;;8.68;1.92;;;22.30;71.60;;;21.20;49.31;100863.78;5010802;28;20075;-50
2021/06/02 05:27:24;;;;;;;10.40;1.63;;;23.30;68.90;;;21.76;47.02;100862.47;5010694;28;20374;-49
2021/06/02 05:30:21;;;;;;;9.82;1.27;;;24.40;65.30;;;21.84;48.01;100870.22;5010425;28;20507;-47
2021/06/02 05:33:17;;;;;;;5.30;1.20;;;24.60;64.60;;;21.94;46.91;100865.28;5010508;28;20048;-45
2021/06/02 05:35:57;;;;;;;12.55;1.58;;;24.70;63.40;;;22.03;46.93;100869.38;5010417;28;20073;-49
2021/06/02 05:38:58;;;;;;;4.30;1.20;;;24.70;63.90;;;21.87;47.69;100864.50;5009270;28;20050;-47
2021/06/02 05:42:14;;;;;;;6.97;1.58;;;24.80;62.00;;;21.58;46.86;100875.59;5008816;28;20436;-46
2021/06/02 05:45:08;;;;;;;4.18;0.80;;;24.90;59.40;;;21.09;48.50;100871.53;5010505;28;20052;-45
2021/06/02 05:48:30;;;;;;;11.15;1.58;;;24.00;61.30;;;19.67;51.17;100876.72;5009913;28;20038;-46
2021/06/02 05:51:41;;;;;;;6.57;1.20;;;22.40;66.00;;;18.98;54.39;100873.94;5010344;28;20057;-46
2021/06/02 05:54:53;;;;;;;1.70;1.02;;;21.10;71.00;;;18.46;55.94;100880.28;5010174;28;20056;-46
2021/06/02 05:58:05;;;;;;;3.05;1.30;;;20.40;74.00;;;18.47;56.45;100883.72;5010014;28;20066;-48
2021/06/02 06:01:01;;;;;;;3.28;1.38;;;19.90;77.10;;;18.55;56.63;100880.97;5009844;28;20056;-45
2021/06/02 06:03:55;;;;;;;5.05;1.55;;;19.70;79.10;;;18.67;56.15;100879.53;5010241;28;20060;-46
2021/06/02 06:06:54;;;;;;;7.43;2.00;;;20.00;78.90;;;20.03;53.21;100879.16;5009990;28;20073;-46
2021/06/02 06:10:04;;;;;;;9.55;1.30;;;21.10;77.30;;;21.94;48.84;100867.94;5009825;28;20912;-48
2021/06/02 06:12:45;;;;;;;6.82;1.48;;;24.00;68.70;;;22.81;46.71;100877.16;4948544;29;20134;-47
2021/06/02 06:16:01;;;;;;;2.35;0.82;;;25.70;62.70;;;23.77;43.65;100879.41;4948550;29;20446;-49
2021/06/02 06:19:07;;;;;;;2.63;0.95;;;26.60;58.40;;;24.17;42.82;100872.59;4948380;28;20047;-46
2021/06/02 06:22:14;;;;;;;4.10;0.80;;;27.20;56.60;;;23.70;43.46;100871.50;4948765;29;20039;-45
2021/06/02 06:24:57;;;;;;;2.30;1.00;;;27.20;56.00;;;23.28;43.94;100870.44;4865058;29;20294;-46
2021/06/02 06:27:33;;;;;;;3.38;1.70;;;26.40;56.50;;;23.34;45.34;100871.44;4948512;28;20118;-46
2021/06/02 06:30:07;;;;;;;4.22;0.90;;;26.40;57.80;;;23.33;44.56;100870.59;4932215;29;20668;-46
2021/06/02 06:32:36;;;;;;;5.82;1.02;;;26.60;56.40;;;23.42;45.92;100869.31;4948424;29;20128;-50
2021/06/02 06:35:05;;;;;;;4.30;1.80;;;27.20;55.90;;;24.66;43.21;100869.91;4948453;29;20423;-46
2021/06/02 06:37:38;;;;;;;2.45;1.10;;;28.10;55.00;;;25.09;41.11;100865.16;4948174;29;20070;-48
2021/06/02 06:40:08;;;;;;;4.60;1.42;;;28.90;52.20;;;25.57;40.59;100871.28;4948283;28;20149;-50
2021/06/02 06:42:52;;;;;;;3.00;0.90;;;29.20;51.70;;;25.06;41.18;100876.28;4960123;28;20454;-46
2021/06/02 06:45:24;;;;;;;2.13;0.70;;;28.90;52.00;;;24.80;41.94;100880.16;5007590;28;20065;-48
2021/06/02 06:47:51;;;;;;;8.18;0.95;;;28.70;51.30;;;24.14;42.76;100881.00;5009349;28;20034;-46
2021/06/02 06:50:19;;;;;;;6.07;1.02;;;27.90;52.70;;;24.37;42.64;100884.88;5007502;28;20066;-46
2021/06/02 06:52:54;;;;;;;3.50;0.88;;;28.00;52.40;;;24.66;41.55;100881.38;5008730;28;20436;-50
2021/06/02 06:55:22;;;;;;;3.38;0.70;;;28.30;52.00;;;24.56;42.82;100886.47;5009167;28;20105;-49
2021/06/02 06:57:49;;;;;;;3.55;0.63;;;28.30;51.90;;;24.56;42.52;100881.13;5007404;28;20561;-49
2021/06/02 07:00:17;;;;;;;2.22;1.15;;;28.20;52.10;;;24.98;41.11;100883.81;5007194;28;20145;-49
2021/06/02 07:02:44;;;;;;;4.45;0.90;;;28.40;51.50;;;25.72;39.83;100879.66;5007526;28;20038;-46
2021/06/02 07:05:12;;;;;;;1.98;0.80;;;29.10;50.30;;;25.96;38.90;100883.13;5009075;28;20473;-50
2021/06/02 07:07:44;;;;;;;3.97;1.20;;;29.80;49.00;;;25.80;38.43;100881.97;5007181;28;20038;-49
2021/06/02 07:10:14;;;;;;;3.65;0.90;;;29.70;48.10;;;25.43;38.70;100887.56;5008593;28;20037;-49
2021/06/02 07:12:43;;;;;;;8.38;1.63;;;28.90;49.30;;;24.30;41.45;100886.81;5014083;28;20046;-49
2021/06/02 07:15:12;;;;;;;3.08;0.90;;;26.80;53.00;;;23.72;42.63;100889.91;4989166;28;20072;-46
2021/06/02 07:17:42;;;;;;;10.15;1.58;;;25.30;56.40;;;22.99;44.21;100895.84;4992671;28;20084;-48
2021/06/02 07:20:13;;;;;;;2.28;1.15;;;24.40;57.90;;;22.69;44.40;100894.75;5007605;28;20038;-49
2021/06/02 07:22:44;;;;;;;9.57;1.75;;;23.80;59.60;;;22.14;45.73;100891.78;5003338;28;20029;-49
2021/06/02 07:25:21;;;;;;;5.07;1.25;;;23.40;60.60;;;22.04;46.38;100891.41;5008323;28;20049;-44
2021/06/02 07:27:49;;;;;;;8.20;1.70;;;23.10;61.80;;;22.05;46.67;100893.88;5008799;28;20144;-45
2021/06/02 07:30:18;;;;;;;6.38;1.00;;;22.90;62.70;;;22.08;46.80;100888.13;5007834;28;20567;-53
2021/06/02 07:32:44;;;;;;;2.70;0.82;;;22.90;63.10;;;22.30;46.63;100901.91;5006864;28;20064;-48
2021/06/02 07:35:12;;;;;;;2.33;1.02;;;23.00;63.30;;;22.61;45.73;100892.38;5008399;28;20465;-49
2021/06/02 07:37:38;;;;;;;2.13;1.25;;;23.20;63.30;;;23.02;44.83;100894.59;5008184;28;20208;-48
2021/06/02 07:40:06;;;;;;;4.50;1.20;;;23.40;62.80;;;23.25;44.56;100889.50;5008235;28;20260;-46
2021/06/02 07:42:34;;;;;;;4.82;1.58;;;23.80;62.10;;;22.99;45.06;100893.19;5007912;28;20095;-48
2021/06/02 07:45:00;;;;;;;3.28;0.93;;;23.80;62.00;;;23.30;44.62;100891.50;5008124;28;20119;-49
2021/06/02 07:47:26;;;;;;;4.93;1.05;;;24.00;62.00;;;23.16;44.92;100891.59;5008273;28;20476;-50
2021/06/02 07:49:53;;;;;;;5.47;1.00;;;24.00;61.90;;;23.63;43.92;100896.56;5008149;28;20078;-47
2021/06/02 07:52:19;;;;;;;6.05;1.10;;;24.20;61.80;;;23.69;43.31;100898.31;5008055;28;20493;-44
2021/06/02 07:54:45;;;;;;;6.75;1.17;;;24.20;61.40;;;23.68;43.05;100894.03;5008275;28;20394;-43
2021/06/02 07:57:11;;;;;;;2.15;0.93;;;24.30;60.90;;;23.59;43.21;100893.53;5008149;28;20037;-45
2021/06/02 07:59:37;;;;;;;5.95;1.02;;;24.10;61.10;;;23.75;42.36;100895.59;5007349;28;20065;-43
2021/06/02 08:02:03;;;;;;;5.22;0.88;;;24.30;60.40;;;24.09;41.65;100896.88;5008607;28;20470;-49
2021/06/02 08:04:30;;;;;;;9.90;2.25;;;24.50;60.10;;;24.02;42.04;100890.00;5006880;28;20100;-50
2021/06/02 08:06:57;;;;;;;14.20;4.90;;;24.60;59.40;;;23.83;41.66;100891.84;5006881;28;20073;-51
2021/06/02 08:09:23;;;;;;;22.42;4.22;;;24.50;57.90;;;23.37;42.26;100887.75;5008263;28;20426;-46
2021/06/02 08:11:51;;;;;;;1.20;0.80;;;24.10;58.70;;;23.88;41.02;100893.84;5008227;28;20076;-52
2021/06/02 08:14:17;;;;;;;4.95;0.73;;;24.20;58.60;;;24.31;40.71;100899.06;5006931;28;20038;-46
2021/06/02 08:16:43;;;;;;;2.45;1.13;;;24.40;59.20;;;24.25;40.08;100892.78;5008681;28;20036;-48
2021/06/02 08:19:09;;;;;;;1.95;0.93;;;24.70;58.30;;;24.68;40.32;100899.78;5008258;28;20128;-47
2021/06/02 08:21:37;;;;;;;5.28;1.13;;;25.00;58.10;;;25.05;39.25;100897.81;5008480;28;20228;-51
2021/06/02 08:24:03;;;;;;;4.05;0.80;;;25.30;57.60;;;25.04;39.54;100893.56;5008282;28;20030;-49
2021/06/02 08:26:33;;;;;;;5.18;1.20;;;25.50;57.70;;;24.78;39.40;100900.88;5008040;28;20034;-51
2021/06/02 08:28:59;;;;;;;2.15;0.85;;;25.50;56.30;;;24.58;39.94;100908.31;5007857;28;20042;-50
2021/06/02 08:31:25;;;;;;;2.40;0.90;;;25.20;56.50;;;24.82;39.62;100898.56;5006703;28;20119;-52
2021/06/02 08:33:50;;;;;;;5.00;1.00;;;25.20;57.00;;;24.86;38.67;100898.94;5008199;28;20033;-48
2021/06/02 08:36:16;;;;;;;2.38;0.80;;;25.40;56.10;;;25.31;38.33;100893.94;5008111;28;20040;-50
2021/06/02 08:38:43;;;;;;;14.75;3.20;;;25.70;56.30;;;25.93;38.26;100897.75;5008094;28;20137;-48
2021/06/02 08:41:09;;;;;;;9.38;1.75;;;26.20;56.60;;;25.94;37.58;100902.03;5011499;28;20720;-51
2021/06/02 08:43:35;;;;;;;3.33;1.10;;;26.50;54.90;;;25.92;37.09;100901.47;5012142;28;20030;-52
2021/06/02 08:46:01;;;;;;;43.63;4.35;;;26.40;54.90;;;26.30;36.89;100902.75;5011892;28;20159;-45
2021/06/02 08:48:28;;;;;;;58.47;11.73;;;26.70;54.80;;;26.02;37.29;100895.50;5012038;28;20038;-49
2021/06/02 08:50:55;;;;;;;249.45;23.00;;;26.70;54.10;;;26.25;37.20;100898.13;5012148;28;20034;-50
2021/06/02 08:53:21;;;;;;;6.28;0.90;;;26.70;54.70;;;25.60;37.02;100905.50;5011753;28;20549;-49
2021/06/02 08:55:48;;;;;;;3.58;1.13;;;26.40;53.40;;;24.84;37.36;100898.34;5010246;28;20100;-45
2021/06/02 08:58:22;;;;;;;5.28;2.47;;;25.60;52.80;;;24.70;37.47;100903.03;5009998;28;20048;-45
2021/06/02 09:00:49;;;;;;;8.45;2.67;;;25.20;54.10;;;24.58;38.13;100902.19;5011261;28;20029;-51
2021/06/02 09:03:16;;;;;;;7.10;1.63;;;25.10;54.30;;;24.68;38.20;100905.13;5011066;28;20041;-48
2021/06/02 09:05:42;;;;;;;6.10;1.92;;;25.00;55.50;;;25.25;37.30;100910.84;5011042;28;20040;-51
2021/06/02 09:08:13;;;;;;;3.42;1.40;;;25.50;55.30;;;24.90;37.33;100903.59;5009275;28;20030;-49
2021/06/02 09:10:45;;;;;;;2.55;1.00;;;25.50;54.20;;;25.13;37.38;100902.81;5011155;28;20040;-51
2021/06/02 09:13:20;;;;;;;5.93;1.73;;;25.40;55.20;;;25.38;37.36;100903.44;5011009;28;20042;-53
2021/06/02 09:15:52;;;;;;;14.10;2.60;;;25.60;55.20;;;25.67;37.50;100908.91;5010884;28;20120;-51
2021/06/02 09:18:21;;;;;;;10.52;1.80;;;25.90;55.50;;;26.05;36.70;100911.06;5010727;28;20493;-52
2021/06/02 09:20:49;;;;;;;10.93;2.42;;;26.20;55.00;;;26.23;36.33;100908.22;5009538;28;20026;-53
2021/06/02 09:23:39;;;;;;;14.65;4.43;;;26.50;54.10;;;25.89;37.07;100909.13;5010651;28;20473;-52
2021/06/02 09:26:25;;;;;;;15.15;5.78;;;26.30;54.70;;;25.83;37.07;100913.53;5010807;28;20046;-48
2021/06/02 09:29:12;;;;;;;;;;;26.20;54.80;;;25.41;37.13;100910.97;5011101;28;20133;-52
2021/06/02 09:31:49;;;;;;;34.33;7.88;;;26.00;54.40;;;26.30;35.03;100908.09;5010848;28;19972;-51
2021/06/02 09:34:22;;;;;;;4.45;1.60;;;26.40;54.10;;;25.54;36.39;100909.09;5010740;28;20045;-54
2021/06/02 09:37:02;;;;;;;4.22;1.40;;;26.20;53.30;;;25.66;36.06;100910.78;5009113;28;20473;-50
2021/06/02 09:39:29;;;;;;;5.85;1.88;;;26.10;53.60;;;26.05;35.56;100909.19;5025461;28;20113;-53
2021/06/02 09:41:59;;;;;;;6.10;1.13;;;26.20;53.30;;;26.49;35.03;100906.88;5010497;28;20554;-50
2021/06/02 09:44:30;;;;;;;73.63;17.90;;;26.60;52.90;;;26.97;34.65;100905.59;5008997;28;20033;-50
2021/06/02 09:47:05;;;;;;;3.00;0.85;;;27.10;53.00;;;27.37;33.51;100908.94;5010309;28;20034;-48
2021/06/02 09:49:51;;;;;;;6.07;1.55;;;27.50;51.60;;;27.46;32.95;100900.47;5009131;28;20458;-51
2021/06/02 09:52:18;;;;;;;8.80;1.77;;;27.70;50.70;;;26.88;34.52;100904.38;5024587;28;20073;-52
2021/06/02 09:54:45;;;;;;;4.05;1.30;;;27.40;51.50;;;26.93;34.28;100904.47;5010251;28;20048;-51
2021/06/02 09:57:17;;;;;;;4.05;0.95;;;27.40;51.20;;;25.33;35.70;100905.19;5010437;28;20041;-50
2021/06/02 09:59:59;;;;;;;9.65;1.98;;;26.50;51.40;;;24.13;36.41;100900.69;5010415;28;20088;-53
2021/06/02 10:02:27;;;;;;;22.15;4.20;;;25.30;51.60;;;24.74;36.89;100899.72;5010092;28;20103;-51
2021/06/02 10:05:08;;;;;;;7.53;1.80;;;25.10;52.90;;;25.77;35.86;100898.47;5010322;28;20089;-50
2021/06/02 10:07:47;;;;;;;5.18;1.23;;;25.80;53.60;;;26.18;33.76;100893.97;5009972;28;20555;-52
2021/06/02 10:10:20;;;;;;;7.32;1.58;;;26.30;51.60;;;26.33;34.31;100899.63;5025133;28;20044;-45
2021/06/02 10:13:10;;;;;;;4.80;0.80;;;26.60;51.70;;;26.26;33.34;100901.59;5008521;28;20587;-49
2021/06/02 10:15:54;;;;;;;3.92;1.60;;;26.60;50.20;;;26.77;33.71;100898.03;5008322;28;20049;-50
2021/06/02 10:18:33;;;;;;;4.05;1.55;;;27.00;51.30;;;26.67;31.54;100909.34;5008504;28;20096;-52
2021/06/02 10:21:14;;;;;;;1.70;0.50;;;27.20;48.00;;;26.95;31.98;100905.81;5009771;28;20393;-47
2021/06/02 10:23:46;;;;;;;1.85;0.80;;;27.10;49.40;;;26.82;33.01;100905.34;5009718;28;20378;-51
2021/06/02 10:26:15;;;;;;;5.15;0.60;;;27.10;50.20;;;26.88;32.86;100913.22;5009877;28;20069;-53
2021/06/02 10:28:44;;;;;;;2.83;0.60;;;27.30;49.90;;;27.23;32.96;100912.19;5009250;28;20052;-52
2021/06/02 10:31:13;;;;;;;2.60;0.65;;;27.40;50.40;;;27.10;32.69;100905.28;5010073;28;20037;-52
2021/06/02 10:33:40;;;;;;;2.42;0.50;;;27.50;49.30;;;26.82;33.53;100905.34;5010154;28;20033;-52
2021/06/02 10:36:09;;;;;;;3.35;0.60;;;27.20;50.00;;;27.38;32.25;100905.22;5009880;28;20366;-48
2021/06/02 10:38:56;;;;;;;1.95;0.77;;;27.60;49.90;;;27.55;32.40;100907.84;5010103;28;20037;-48
2021/06/02 10:41:50;;;;;;;5.93;1.20;;;27.90;49.70;;;27.54;30.68;100898.19;5009881;28;20282;-46
2021/06/02 10:44:26;;;;;;;4.65;0.68;;;28.00;48.00;;;27.68;31.70;100896.84;5008491;28;20152;-52
2021/06/02 10:46:53;;;;;;;0.98;0.55;;;28.00;48.80;;;27.86;31.81;100903.78;5009691;28;20523;-51
2021/06/02 10:49:27;;;;;;;5.95;0.77;;;28.20;48.90;;;27.61;31.46;100900.72;5009993;28;20362;-54
2021/06/02 10:51:56;;;;;;;3.67;0.70;;;28.10;48.40;;;27.05;32.21;100906.03;5008185;28;20142;-54
2021/06/02 10:54:36;;;;;;;3.10;0.60;;;27.90;47.90;;;27.04;32.60;100906.25;5009554;28;20040;-49
2021/06/02 10:57:01;;;;;;;3.08;0.75;;;27.60;49.10;;;27.38;32.23;100912.44;5009636;28;20052;-53
2021/06/02 10:59:33;;;;;;;3.47;0.75;;;27.70;48.90;;;27.68;31.47;100914.75;5009789;28;20029;-50
2021/06/02 11:02:05;;;;;;;1.92;0.45;;;27.90;48.60;;;27.80;31.66;100904.75;5009353;28;20527;-50
2021/06/02 11:04:35;;;;;;;1.85;0.50;;;28.10;48.40;;;27.27;32.49;100916.81;5008521;28;20053;-52
2021/06/02 11:07:21;;;;;;;1.70;1.02;;;28.00;48.90;;;27.37;32.13;100921.50;5009393;28;20034;-50